createdAt,value
2023-04-09T00:00:58.348Z,6
2023-04-09T00:06:14.765Z,7
2023-04-09T00:11:31.111Z,5
2023-04-09T00:16:47.527Z,5
2023-04-09T00:22:03.906Z,5
2023-04-09T00:27:20.280Z,6
2023-04-09T00:32:36.712Z,5
2023-04-09T00:37:53.042Z,3
2023-04-09T00:43:09.420Z,3
2023-04-09T00:48:25.797Z,5
2023-04-09T00:53:42.154Z,4
2023-04-09T00:58:58.575Z,3
2023-04-09T01:04:14.943Z,4
2023-04-09T01:09:31.326Z,3
2023-04-09T01:14:47.734Z,5
2023-04-09T01:20:04.144Z,4
2023-04-09T01:25:20.538Z,3
2023-04-09T01:30:36.939Z,2
2023-04-09T01:35:53.321Z,2
2023-04-09T01:41:09.697Z,4
2023-04-09T01:46:26.337Z,3
2023-04-09T01:51:42.732Z,3
2023-04-09T01:56:59.091Z,3
2023-04-09T02:02:15.542Z,3
2023-04-09T02:07:31.876Z,3
2023-04-09T02:12:48.225Z,2
2023-04-09T02:18:04.647Z,3
2023-04-09T02:23:20.997Z,3
2023-04-09T02:28:37.412Z,4
2023-04-09T02:33:53.752Z,5
2023-04-09T02:39:10.169Z,4
2023-04-09T02:44:26.539Z,3
2023-04-09T02:49:42.923Z,3
2023-04-09T02:54:59.316Z,5
2023-04-09T03:00:15.697Z,4
2023-04-09T03:05:32.083Z,3
2023-04-09T03:10:48.452Z,5
2023-04-09T03:16:04.857Z,6
2023-04-09T03:21:21.206Z,3
2023-04-09T03:26:37.577Z,5
2023-04-09T03:31:53.972Z,5
2023-04-09T03:37:10.341Z,6
2023-04-09T03:42:26.711Z,5
2023-04-09T03:47:43.213Z,5
2023-04-09T03:52:59.478Z,3
2023-04-09T03:58:15.907Z,5
2023-04-09T04:03:32.458Z,4
2023-04-09T04:08:48.746Z,2
2023-04-09T04:14:05.152Z,3
2023-04-09T04:19:21.513Z,4
2023-04-09T04:24:37.909Z,5
2023-04-09T04:29:54.274Z,3
2023-04-09T04:35:10.677Z,6
2023-04-09T04:40:27.073Z,5
2023-04-09T04:45:43.481Z,3
2023-04-09T04:50:59.943Z,5
2023-04-09T04:56:16.330Z,3
2023-04-09T05:01:32.935Z,6
2023-04-09T05:06:49.163Z,7
2023-04-09T05:12:05.505Z,6
2023-04-09T05:17:21.942Z,6
2023-04-09T05:22:38.268Z,8
2023-04-09T05:27:54.693Z,11
2023-04-09T05:33:11.108Z,14
2023-04-09T05:38:27.528Z,6
2023-04-09T05:43:43.920Z,7
2023-04-09T05:49:00.275Z,4
2023-04-09T05:54:16.685Z,5
2023-04-09T05:59:33.092Z,11
2023-04-09T06:04:49.471Z,10
2023-04-09T06:10:05.879Z,9
2023-04-09T06:15:22.252Z,7
2023-04-09T06:20:38.676Z,8
2023-04-09T06:25:55.051Z,9
2023-04-09T06:31:11.485Z,6
2023-04-09T06:36:27.878Z,12
2023-04-09T06:41:44.216Z,5
2023-04-09T06:47:00.648Z,7
2023-04-09T06:52:16.969Z,6
2023-04-09T06:57:33.359Z,6
2023-04-09T07:02:50.013Z,3
2023-04-09T07:08:06.123Z,5
2023-04-09T07:13:22.527Z,5
2023-04-09T07:18:38.931Z,6
2023-04-09T07:23:55.345Z,6
2023-04-09T07:29:11.721Z,3
2023-04-09T07:34:28.063Z,6
2023-04-09T07:39:44.775Z,5
2023-04-09T07:45:00.824Z,5
2023-04-09T07:50:17.244Z,8
2023-04-09T07:55:33.590Z,6
2023-04-09T08:00:49.985Z,4
2023-04-09T08:06:06.406Z,6
2023-04-09T08:11:22.736Z,6
2023-04-09T08:16:39.183Z,7
2023-04-09T08:21:55.507Z,6
2023-04-09T08:27:11.897Z,4
2023-04-09T08:32:28.337Z,6
2023-04-09T08:37:44.658Z,6
2023-04-09T08:43:01.058Z,6
2023-04-09T08:48:17.492Z,8
2023-04-09T08:53:33.806Z,12
2023-04-09T08:58:50.210Z,5
2023-04-09T09:04:06.543Z,8
2023-04-09T09:09:22.929Z,7
2023-04-09T09:14:39.249Z,6
2023-04-09T09:19:55.647Z,6
2023-04-09T09:25:11.986Z,6
2023-04-09T09:30:28.348Z,7
2023-04-09T09:35:44.765Z,8
2023-04-09T09:41:01.078Z,6
2023-04-09T09:46:17.522Z,6
2023-04-09T09:51:33.797Z,6
2023-04-09T09:56:50.170Z,7
2023-04-09T10:02:06.667Z,6
2023-04-09T10:07:22.903Z,7
2023-04-09T10:12:39.319Z,8
2023-04-09T10:17:55.692Z,8
2023-04-09T10:23:12.061Z,11
2023-04-09T10:28:28.375Z,9
2023-04-09T10:33:44.814Z,9
2023-04-09T10:39:01.143Z,9
2023-04-09T10:44:17.502Z,11
2023-04-09T10:49:33.923Z,10
2023-04-09T10:54:50.253Z,7
2023-04-09T11:00:06.641Z,6
2023-04-09T11:05:23.032Z,8
2023-04-09T11:10:39.384Z,7
2023-04-09T11:15:55.849Z,6
2023-04-09T11:21:12.116Z,6
2023-04-09T11:26:28.518Z,7
2023-04-09T11:31:44.939Z,8
2023-04-09T11:37:01.194Z,7
2023-04-09T11:42:17.644Z,7
2023-04-09T11:47:33.940Z,6
2023-04-09T11:52:50.339Z,4
2023-04-09T11:58:06.656Z,5
2023-04-09T12:03:23.375Z,6
2023-04-09T12:08:39.387Z,5
2023-04-09T12:13:55.732Z,4
2023-04-09T12:19:12.098Z,6
2023-04-09T12:24:28.419Z,6
2023-04-09T12:29:44.778Z,5
2023-04-09T12:35:01.150Z,5
2023-04-09T12:40:17.480Z,6
2023-04-09T12:45:33.852Z,6
2023-04-09T12:50:50.163Z,6
2023-04-09T12:56:31.554Z,4
2023-04-09T13:01:48.011Z,5
2023-04-09T13:07:04.268Z,4
2023-04-09T13:12:20.652Z,5
2023-04-09T13:17:37.083Z,4
2023-04-09T13:22:53.377Z,12
2023-04-09T13:28:09.692Z,4
2023-04-09T13:33:26.028Z,4
2023-04-09T13:38:42.420Z,5
2023-04-09T13:43:58.732Z,5
2023-04-09T13:49:15.106Z,4
2023-04-09T13:54:31.436Z,5
2023-04-09T13:59:47.784Z,4
2023-04-09T14:05:04.208Z,5
2023-04-09T14:10:20.493Z,5
2023-04-09T14:15:36.967Z,6
2023-04-09T14:20:53.213Z,6
2023-04-09T14:26:09.581Z,7
2023-04-09T14:31:26.005Z,7
2023-04-09T14:36:42.307Z,5
2023-04-09T14:41:59.395Z,6
2023-04-09T14:47:15.744Z,4
2023-04-09T14:52:32.117Z,4
2023-04-09T14:57:48.535Z,4
2023-04-09T15:03:05.043Z,4
2023-04-09T15:08:21.196Z,4
2023-04-09T15:13:37.538Z,4
2023-04-09T15:18:55.082Z,6
2023-04-09T15:24:11.179Z,7
2023-04-09T15:29:27.524Z,6
2023-04-09T15:34:43.903Z,5
2023-04-09T15:40:00.311Z,6
2023-04-09T15:45:16.626Z,4
2023-04-09T15:50:33.053Z,5
2023-04-09T15:55:49.469Z,6
2023-04-09T16:01:06.176Z,7
2023-04-09T16:06:22.173Z,4
2023-04-09T16:11:38.553Z,5
2023-04-09T16:16:54.924Z,9
2023-04-09T16:22:11.278Z,5
2023-04-09T16:27:27.681Z,10
2023-04-09T16:32:44.097Z,4
2023-04-09T16:38:00.468Z,2
2023-04-09T16:43:16.815Z,2
2023-04-09T16:48:33.342Z,2
2023-04-09T16:53:49.594Z,3
2023-04-09T16:59:05.920Z,3
2023-04-09T17:04:22.368Z,4
2023-04-09T17:09:38.668Z,3
2023-04-09T17:14:55.110Z,2
2023-04-09T17:20:11.520Z,2
2023-04-09T17:25:27.835Z,6
2023-04-09T17:30:44.230Z,6
2023-04-09T17:36:00.655Z,6
2023-04-09T17:41:16.992Z,4
2023-04-09T17:46:33.411Z,3
2023-04-09T17:51:49.719Z,3
2023-04-09T17:57:06.129Z,4
2023-04-09T18:02:22.613Z,4
2023-04-09T18:07:38.871Z,7
2023-04-09T18:12:55.256Z,6
2023-04-09T18:18:11.602Z,6
2023-04-09T18:23:28.029Z,4
2023-04-09T18:28:44.358Z,4
2023-04-09T18:34:00.787Z,5
2023-04-09T18:39:17.121Z,4
2023-04-09T18:44:33.531Z,4
2023-04-09T18:49:49.904Z,8
2023-04-09T18:55:06.289Z,16
2023-04-09T19:00:22.715Z,19
2023-04-09T19:05:39.067Z,12
2023-04-09T19:10:55.461Z,9
2023-04-09T19:16:11.877Z,9
2023-04-09T19:21:28.209Z,8
2023-04-09T19:26:44.631Z,9
2023-04-09T19:32:01.014Z,8
2023-04-09T19:37:17.394Z,7
2023-04-09T19:42:33.746Z,6
2023-04-09T19:47:50.173Z,6
2023-04-09T19:53:06.523Z,6
2023-04-09T19:58:22.889Z,8
2023-04-09T20:03:39.385Z,9
2023-04-09T20:08:55.675Z,4
2023-04-09T20:14:12.141Z,4
2023-04-09T20:19:28.461Z,4
2023-04-09T20:24:44.837Z,4
2023-04-09T20:30:01.367Z,3
2023-04-09T20:35:17.706Z,3
2023-04-09T20:40:34.097Z,8
2023-04-09T20:45:50.510Z,5
2023-04-09T20:51:06.853Z,10
2023-04-09T20:56:23.274Z,6
2023-04-09T21:01:39.761Z,4
2023-04-09T21:06:56.012Z,6
2023-04-09T21:12:12.438Z,3
2023-04-09T21:17:28.852Z,5
2023-04-09T21:22:45.224Z,6
2023-04-09T21:28:01.589Z,5
2023-04-09T21:33:17.991Z,7
2023-04-09T21:38:34.671Z,4
2023-04-09T21:43:51.030Z,1
2023-04-09T21:49:07.429Z,2
2023-04-09T21:54:23.807Z,3
2023-04-09T21:59:40.215Z,3
2023-04-09T22:04:56.686Z,2
2023-04-09T22:10:12.993Z,3
2023-04-09T22:15:29.367Z,2
2023-04-09T22:20:45.769Z,2
2023-04-09T22:26:02.171Z,4
2023-04-09T22:31:18.578Z,3
2023-04-09T22:36:34.922Z,2
2023-04-09T22:41:51.317Z,3
2023-04-09T22:47:07.703Z,3
2023-04-09T22:52:24.086Z,5
2023-04-09T22:57:40.499Z,2
2023-04-09T23:02:56.985Z,3
2023-04-09T23:08:13.355Z,3
2023-04-09T23:13:29.757Z,3
2023-04-09T23:18:46.113Z,2
2023-04-09T23:24:02.531Z,2
2023-04-09T23:29:18.893Z,4
2023-04-09T23:34:35.323Z,2
2023-04-09T23:39:51.669Z,2
2023-04-09T23:45:08.062Z,2
2023-04-09T23:50:24.455Z,2
2023-04-09T23:55:40.858Z,2
